createdAt,value
2023-01-08T00:00:40.094Z,100.00
2023-01-08T00:03:41.848Z,100.00
2023-01-08T00:06:44.057Z,100.00
2023-01-08T00:09:45.468Z,100.00
2023-01-08T00:12:46.958Z,100.00
2023-01-08T00:15:48.391Z,100.00
2023-01-08T00:18:49.888Z,100.00
2023-01-08T00:21:51.406Z,100.00
2023-01-08T00:24:52.889Z,100.00
2023-01-08T00:27:54.432Z,100.00
2023-01-08T00:30:56.166Z,100.00
2023-01-08T00:33:57.720Z,100.00
2023-01-08T00:36:59.221Z,100.00
2023-01-08T00:40:00.698Z,100.00
2023-01-08T00:43:02.785Z,100.00
2023-01-08T00:46:04.621Z,100.00
2023-01-08T00:49:06.245Z,100.00
2023-01-08T00:52:07.836Z,100.00
2023-01-08T00:55:09.888Z,100.00
2023-01-08T00:58:12.451Z,100.00
2023-01-08T01:01:15.388Z,100.00
2023-01-08T01:04:17.065Z,99.80
2023-01-08T01:07:18.884Z,100.00
2023-01-08T01:10:20.379Z,100.00
2023-01-08T01:13:21.913Z,100.00
2023-01-08T01:16:24.346Z,100.00
2023-01-08T01:19:25.928Z,100.00
2023-01-08T01:22:27.529Z,100.00
2023-01-08T01:25:29.376Z,100.00
2023-01-08T01:28:30.828Z,100.00
2023-01-08T01:31:34.286Z,100.00
2023-01-08T01:34:35.789Z,100.00
2023-01-08T01:37:37.357Z,100.00
2023-01-08T01:40:43.019Z,100.00
2023-01-08T01:43:44.507Z,100.00
2023-01-08T01:46:47.726Z,100.00
2023-01-08T01:50:04.300Z,100.00
2023-01-08T01:53:19.729Z,100.00
2023-01-08T01:56:21.198Z,99.81
2023-01-08T01:59:22.735Z,99.39
2023-01-08T02:02:24.345Z,99.17
2023-01-08T02:05:34.625Z,99.64
2023-01-08T02:08:36.088Z,99.58
2023-01-08T02:11:47.312Z,98.52
2023-01-08T02:15:07.334Z,97.93
2023-01-08T02:18:14.969Z,98.36
2023-01-08T02:21:33.121Z,97.51
2023-01-08T02:24:53.454Z,97.87
2023-01-08T02:27:57.089Z,98.08
2023-01-08T02:30:59.655Z,97.13
2023-01-08T02:34:01.296Z,95.93
2023-01-08T02:37:02.822Z,96.82
2023-01-08T02:40:28.823Z,96.80
2023-01-08T02:43:50.075Z,96.26
2023-01-08T02:46:56.154Z,95.08
2023-01-08T02:50:06.028Z,95.51
2023-01-08T02:53:28.486Z,94.78
2023-01-08T02:56:37.890Z,94.65
2023-01-08T02:59:43.333Z,95.25
2023-01-08T03:02:45.705Z,96.90
2023-01-08T03:05:52.657Z,97.99
2023-01-08T03:08:54.734Z,98.81
2023-01-08T03:12:04.992Z,98.90
2023-01-08T03:15:09.525Z,99.47
2023-01-08T03:18:15.705Z,100.00
2023-01-08T03:21:19.553Z,100.00
2023-01-08T03:24:31.713Z,100.00
2023-01-08T03:27:37.903Z,100.00
2023-01-08T03:30:41.902Z,100.00
2023-01-08T03:33:45.437Z,100.00
2023-01-08T03:36:49.825Z,100.00
2023-01-08T03:40:00.614Z,100.00
2023-01-08T03:43:02.423Z,100.00
2023-01-08T03:46:10.049Z,100.00
2023-01-08T03:49:12.631Z,100.00
2023-01-08T03:52:29.524Z,100.00
2023-01-08T03:55:31.039Z,100.00
2023-01-08T03:58:32.650Z,100.00
2023-01-08T04:01:35.224Z,100.00
2023-01-08T04:04:36.967Z,100.00
2023-01-08T04:07:38.517Z,100.00
2023-01-08T04:10:39.989Z,100.00
2023-01-08T04:13:41.516Z,100.00
2023-01-08T04:16:42.982Z,100.00
2023-01-08T04:19:44.398Z,100.00
2023-01-08T04:22:45.929Z,100.00
2023-01-08T04:25:47.459Z,100.00
2023-01-08T04:28:48.917Z,100.00
2023-01-08T04:31:50.353Z,100.00
2023-01-08T04:34:51.840Z,100.00
2023-01-08T04:37:53.396Z,100.00
2023-01-08T04:40:59.945Z,100.00
2023-01-08T04:44:01.497Z,100.00
2023-01-08T04:47:03.049Z,100.00
2023-01-08T04:50:04.978Z,100.00
2023-01-08T04:53:06.519Z,100.00
2023-01-08T04:56:10.100Z,100.00
2023-01-08T04:59:11.639Z,100.00
2023-01-08T05:02:13.761Z,100.00
2023-01-08T05:05:15.660Z,100.00
2023-01-08T05:08:17.181Z,100.00
2023-01-08T05:11:18.654Z,100.00
2023-01-08T05:14:20.146Z,100.00
2023-01-08T05:17:21.671Z,100.00
2023-01-08T05:20:23.162Z,100.00
2023-01-08T05:23:24.616Z,100.00
2023-01-08T05:26:26.198Z,100.00
2023-01-08T05:29:27.736Z,100.00
2023-01-08T05:32:29.180Z,100.00
2023-01-08T05:35:30.679Z,100.00
2023-01-08T05:38:32.180Z,100.00
2023-01-08T05:41:34.052Z,100.00
2023-01-08T05:44:35.530Z,100.00
2023-01-08T05:47:37.033Z,100.00
2023-01-08T05:50:38.486Z,100.00
2023-01-08T05:53:39.939Z,100.00
2023-01-08T05:56:43.849Z,100.00
2023-01-08T05:59:45.337Z,100.00
2023-01-08T06:02:48.052Z,100.00
2023-01-08T06:05:49.739Z,100.00
2023-01-08T06:08:51.303Z,100.00
2023-01-08T06:11:53.122Z,100.00
2023-01-08T06:14:54.653Z,100.00
2023-01-08T06:17:57.185Z,100.00
2023-01-08T06:20:58.789Z,100.00
2023-01-08T06:24:00.230Z,100.00
2023-01-08T06:27:01.760Z,100.00
2023-01-08T06:30:03.619Z,100.00
2023-01-08T06:33:05.127Z,100.00
2023-01-08T06:36:06.961Z,100.00
2023-01-08T06:39:08.537Z,100.00
2023-01-08T06:42:10.033Z,100.00
2023-01-08T06:45:12.092Z,100.00
2023-01-08T06:48:13.600Z,100.00
2023-01-08T06:51:15.084Z,100.00
2023-01-08T06:54:16.608Z,100.00
2023-01-08T06:57:18.110Z,100.00
2023-01-08T07:00:19.737Z,100.00
2023-01-08T07:03:21.747Z,100.00
2023-01-08T07:06:25.061Z,100.00
2023-01-08T07:09:26.518Z,100.00
2023-01-08T07:12:27.970Z,100.00
2023-01-08T07:15:29.465Z,100.00
2023-01-08T07:18:30.934Z,100.00
2023-01-08T07:21:32.557Z,100.00
2023-01-08T07:24:34.033Z,100.00
2023-01-08T07:27:35.560Z,100.00
2023-01-08T07:30:37.134Z,100.00
2023-01-08T07:33:38.741Z,100.00
2023-01-08T07:36:40.246Z,100.00
2023-01-08T07:39:41.713Z,100.00
2023-01-08T07:42:43.177Z,100.00
2023-01-08T07:45:44.893Z,100.00
2023-01-08T07:48:46.362Z,100.00
2023-01-08T07:51:51.066Z,100.00
2023-01-08T07:54:52.549Z,100.00
2023-01-08T07:57:54.129Z,100.00
2023-01-08T08:00:58.992Z,100.00
2023-01-08T08:04:00.635Z,100.00
2023-01-08T08:07:02.145Z,100.00
2023-01-08T08:10:04.809Z,100.00
2023-01-08T08:13:06.861Z,100.00
2023-01-08T08:16:08.522Z,100.00
2023-01-08T08:19:11.744Z,100.00
2023-01-08T08:22:13.771Z,100.00
2023-01-08T08:25:15.383Z,100.00
2023-01-08T08:28:16.933Z,100.00
2023-01-08T08:31:18.511Z,100.00
2023-01-08T08:34:22.401Z,100.00
2023-01-08T08:37:23.887Z,100.00
2023-01-08T08:40:26.635Z,100.00
2023-01-08T08:43:28.343Z,100.00
2023-01-08T08:46:30.133Z,100.00
2023-01-08T08:49:31.601Z,100.00
2023-01-08T08:52:34.140Z,100.00
2023-01-08T08:55:35.919Z,100.00
2023-01-08T08:58:37.448Z,100.00
2023-01-08T09:01:39.070Z,100.00
2023-01-08T09:04:40.654Z,100.00
2023-01-08T09:07:42.142Z,100.00
2023-01-08T09:10:43.775Z,100.00
2023-01-08T09:13:45.279Z,100.00
2023-01-08T09:16:46.878Z,100.00
2023-01-08T09:19:48.506Z,100.00
2023-01-08T09:22:50.108Z,100.00
2023-01-08T09:25:59.573Z,100.00
2023-01-08T09:29:01.127Z,100.00
2023-01-08T09:32:06.961Z,100.00
2023-01-08T09:35:08.952Z,100.00
2023-01-08T09:38:10.499Z,100.00
2023-01-08T09:41:21.254Z,100.00
2023-01-08T09:44:28.075Z,100.00
2023-01-08T09:47:36.975Z,100.00
2023-01-08T09:50:38.736Z,100.00
2023-01-08T09:53:40.660Z,100.00
2023-01-08T09:56:42.367Z,100.00
2023-01-08T09:59:44.068Z,100.00
2023-01-08T10:02:45.748Z,100.00
2023-01-08T10:05:47.243Z,100.00
2023-01-08T10:08:50.429Z,100.00
2023-01-08T10:11:55.164Z,100.00
2023-01-08T10:15:01.437Z,100.00
2023-01-08T10:18:06.281Z,100.00
2023-01-08T10:21:13.860Z,100.00
2023-01-08T10:24:15.499Z,100.00
2023-01-08T10:27:20.462Z,100.00
2023-01-08T10:30:30.783Z,100.00
2023-01-08T10:33:41.117Z,100.00
2023-01-08T10:36:43.247Z,99.95
2023-01-08T10:39:47.469Z,100.00
2023-01-08T10:42:50.979Z,99.29
2023-01-08T10:45:59.814Z,99.72
2023-01-08T10:49:04.361Z,98.03
2023-01-08T10:52:05.929Z,97.60
2023-01-08T10:55:21.264Z,98.05
2023-01-08T10:58:22.920Z,99.16
2023-01-08T11:01:27.313Z,100.00
2023-01-08T11:04:35.278Z,100.00
2023-01-08T11:07:37.249Z,100.00
2023-01-08T11:10:38.995Z,100.00
2023-01-08T11:13:40.666Z,100.00
2023-01-08T11:16:42.943Z,100.00
2023-01-08T11:19:44.428Z,100.00
2023-01-08T11:22:46.002Z,100.00
2023-01-08T11:26:05.517Z,100.00
2023-01-08T11:29:17.869Z,100.00
2023-01-08T11:32:46.316Z,100.00
2023-01-08T11:35:58.509Z,100.00
2023-01-08T11:39:01.549Z,100.00
2023-01-08T11:42:28.045Z,100.00
2023-01-08T11:45:35.604Z,100.00
2023-01-08T11:49:00.095Z,100.00
2023-01-08T11:52:24.891Z,100.00
2023-01-08T11:55:47.313Z,100.00
2023-01-08T11:59:22.709Z,100.00
2023-01-08T12:02:56.083Z,100.00
2023-01-08T12:06:03.401Z,100.00
2023-01-08T12:09:42.758Z,100.00
2023-01-08T12:12:56.259Z,100.00
2023-01-08T12:16:06.789Z,100.00
2023-01-08T12:19:37.657Z,100.00
2023-01-08T12:22:46.559Z,100.00
2023-01-08T12:26:03.145Z,100.00
2023-01-08T12:29:37.424Z,100.00
2023-01-08T12:32:49.126Z,100.00
2023-01-08T12:35:54.712Z,100.00
2023-01-08T12:39:03.104Z,100.00
2023-01-08T12:42:18.562Z,100.00
2023-01-08T12:45:28.467Z,100.00
2023-01-08T12:48:33.566Z,100.00
2023-01-08T12:51:40.359Z,100.00
2023-01-08T12:54:41.894Z,100.00
2023-01-08T12:58:00.273Z,100.00
2023-01-08T13:01:24.618Z,100.00
2023-01-08T13:04:26.290Z,100.00
2023-01-08T13:07:32.852Z,100.00
2023-01-08T13:10:39.306Z,100.00
2023-01-08T13:13:45.065Z,100.00
2023-01-08T13:16:47.560Z,100.00
2023-01-08T13:19:59.632Z,100.00
2023-01-08T13:23:04.206Z,100.00
2023-01-08T13:26:07.068Z,100.00
2023-01-08T13:29:42.978Z,100.00
2023-01-08T13:32:47.651Z,100.00
2023-01-08T13:35:49.328Z,100.00
2023-01-08T13:39:01.121Z,100.00
2023-01-08T13:42:24.696Z,100.00
2023-01-08T13:45:29.092Z,100.00
2023-01-08T13:48:35.232Z,100.00
2023-01-08T13:51:44.061Z,100.00
2023-01-08T13:54:45.606Z,100.00
2023-01-08T13:57:53.858Z,100.00
2023-01-08T14:00:57.388Z,100.00
2023-01-08T14:03:59.028Z,100.00
2023-01-08T14:07:13.927Z,100.00
2023-01-08T14:10:16.764Z,100.00
2023-01-08T14:13:22.481Z,100.00
2023-01-08T14:16:24.641Z,100.00
2023-01-08T14:19:26.668Z,100.00
2023-01-08T14:22:33.573Z,100.00
2023-01-08T14:25:37.860Z,100.00
2023-01-08T14:28:39.362Z,100.00
2023-01-08T14:31:47.183Z,100.00
2023-01-08T14:34:51.934Z,100.00
2023-01-08T14:37:53.783Z,100.00
2023-01-08T14:41:03.843Z,100.00
2023-01-08T14:44:05.419Z,100.00
2023-01-08T14:47:16.658Z,100.00
2023-01-08T14:50:24.907Z,100.00
2023-01-08T14:53:38.234Z,100.00
2023-01-08T14:56:39.775Z,100.00
2023-01-08T14:59:41.850Z,100.00
2023-01-08T15:02:46.092Z,100.00
2023-01-08T15:05:54.305Z,100.00
2023-01-08T15:08:56.143Z,100.00
2023-01-08T15:12:00.661Z,100.00
2023-01-08T15:15:10.260Z,100.00
2023-01-08T15:18:12.987Z,100.00
2023-01-08T15:21:22.905Z,100.00
2023-01-08T15:24:41.673Z,100.00
2023-01-08T15:27:53.357Z,100.00
2023-01-08T15:30:56.329Z,100.00
2023-01-08T15:33:59.587Z,100.00
2023-01-08T15:37:01.101Z,100.00
2023-01-08T15:40:04.265Z,100.00
2023-01-08T15:43:11.397Z,100.00
2023-01-08T15:46:12.954Z,100.00
2023-01-08T15:49:14.386Z,100.00
2023-01-08T15:52:20.869Z,100.00
2023-01-08T15:55:24.268Z,100.00
2023-01-08T15:58:25.810Z,100.00
2023-01-08T16:01:28.501Z,100.00
2023-01-08T16:04:30.044Z,100.00
2023-01-08T16:07:31.561Z,100.00
2023-01-08T16:10:33.634Z,100.00
2023-01-08T16:13:35.127Z,100.00
2023-01-08T16:16:36.647Z,100.00
2023-01-08T16:19:38.208Z,100.00
2023-01-08T16:22:39.721Z,100.00
2023-01-08T16:25:41.305Z,100.00
2023-01-08T16:28:43.218Z,100.00
2023-01-08T16:31:46.283Z,100.00
2023-01-08T16:34:47.821Z,100.00
2023-01-08T16:37:49.329Z,100.00
2023-01-08T16:40:52.094Z,100.00
2023-01-08T16:43:53.674Z,100.00
2023-01-08T16:46:55.687Z,100.00
2023-01-08T16:49:57.257Z,100.00
2023-01-08T16:52:58.696Z,100.00
2023-01-08T16:56:00.355Z,100.00
2023-01-08T16:59:02.846Z,100.00
2023-01-08T17:02:06.025Z,100.00
2023-01-08T17:05:07.883Z,100.00
2023-01-08T17:08:10.738Z,100.00
2023-01-08T17:11:14.915Z,100.00
2023-01-08T17:14:16.613Z,100.00
2023-01-08T17:17:18.176Z,100.00
2023-01-08T17:20:20.016Z,100.00
2023-01-08T17:23:27.045Z,100.00
2023-01-08T17:26:28.522Z,100.00
2023-01-08T17:29:30.061Z,100.00
2023-01-08T17:32:31.941Z,100.00
2023-01-08T17:35:33.447Z,100.00
2023-01-08T17:38:35.253Z,100.00
2023-01-08T17:41:55.080Z,100.00
2023-01-08T17:44:58.894Z,100.00
2023-01-08T17:48:00.377Z,100.00
2023-01-08T17:51:08.605Z,100.00
2023-01-08T17:54:12.385Z,100.00
2023-01-08T17:57:14.406Z,100.00
2023-01-08T18:00:17.548Z,100.00
2023-01-08T18:03:19.040Z,100.00
2023-01-08T18:06:20.517Z,100.00
2023-01-08T18:09:22.165Z,100.00
2023-01-08T18:12:23.688Z,100.00
2023-01-08T18:15:25.196Z,100.00
2023-01-08T18:18:26.672Z,100.00
2023-01-08T18:21:28.761Z,100.00
2023-01-08T18:24:30.394Z,100.00
2023-01-08T18:27:31.878Z,100.00
2023-01-08T18:30:33.431Z,100.00
2023-01-08T18:33:35.920Z,100.00
2023-01-08T18:36:37.428Z,100.00
2023-01-08T18:39:38.975Z,100.00
2023-01-08T18:42:40.496Z,100.00
2023-01-08T18:45:41.944Z,100.00
2023-01-08T18:48:43.465Z,100.00
2023-01-08T18:51:44.966Z,100.00
2023-01-08T18:54:46.528Z,100.00
2023-01-08T18:57:49.672Z,100.00
2023-01-08T19:00:51.708Z,100.00
2023-01-08T19:03:53.697Z,100.00
2023-01-08T19:06:55.229Z,100.00
2023-01-08T19:09:57.083Z,100.00
2023-01-08T19:12:58.744Z,100.00
2023-01-08T19:16:04.343Z,100.00
2023-01-08T19:19:06.936Z,100.00
2023-01-08T19:22:08.629Z,100.00
2023-01-08T19:25:10.403Z,100.00
2023-01-08T19:28:11.899Z,100.00
2023-01-08T19:31:17.282Z,100.00
2023-01-08T19:34:18.839Z,100.00
2023-01-08T19:37:20.511Z,100.00
2023-01-08T19:40:22.034Z,100.00
2023-01-08T19:43:42.008Z,100.00
2023-01-08T19:46:43.537Z,100.00
2023-01-08T19:49:47.647Z,100.00
2023-01-08T19:52:51.164Z,100.00
2023-01-08T19:55:52.680Z,100.00
2023-01-08T19:58:56.602Z,100.00
2023-01-08T20:01:58.154Z,100.00
2023-01-08T20:04:59.749Z,100.00
2023-01-08T20:08:01.245Z,100.00
2023-01-08T20:11:14.087Z,100.00
2023-01-08T20:14:15.657Z,100.00
2023-01-08T20:17:21.562Z,100.00
2023-01-08T20:20:23.094Z,100.00
2023-01-08T20:23:25.664Z,100.00
2023-01-08T20:26:28.684Z,100.00
2023-01-08T20:29:30.284Z,100.00
2023-01-08T20:32:31.756Z,100.00
2023-01-08T20:35:36.525Z,100.00
2023-01-08T20:38:38.144Z,100.00
2023-01-08T20:41:41.163Z,100.00
2023-01-08T20:44:44.967Z,100.00
2023-01-08T20:47:46.547Z,100.00
2023-01-08T20:50:55.272Z,100.00
2023-01-08T20:53:56.802Z,100.00
2023-01-08T20:56:59.561Z,100.00
2023-01-08T21:00:01.042Z,100.00
2023-01-08T21:03:02.912Z,100.00
2023-01-08T21:06:06.874Z,100.00
2023-01-08T21:09:10.023Z,100.00
2023-01-08T21:12:11.517Z,100.00
2023-01-08T21:15:13.163Z,100.00
2023-01-08T21:18:14.678Z,100.00
2023-01-08T21:21:19.766Z,100.00
2023-01-08T21:24:21.220Z,100.00
2023-01-08T21:27:22.742Z,100.00
2023-01-08T21:30:24.250Z,100.00
2023-01-08T21:33:25.710Z,100.00
2023-01-08T21:36:30.148Z,100.00
2023-01-08T21:39:33.064Z,100.00
2023-01-08T21:42:53.407Z,100.00
2023-01-08T21:46:00.445Z,100.00
2023-01-08T21:49:01.987Z,100.00
2023-01-08T21:52:23.663Z,100.00
2023-01-08T21:55:25.146Z,100.00
2023-01-08T21:58:28.763Z,100.00
2023-01-08T22:01:30.526Z,100.00
2023-01-08T22:04:32.826Z,100.00
2023-01-08T22:07:34.682Z,100.00
2023-01-08T22:10:36.217Z,100.00
2023-01-08T22:13:39.179Z,100.00
2023-01-08T22:16:40.831Z,100.00
2023-01-08T22:19:42.378Z,100.00
2023-01-08T22:22:47.075Z,100.00
2023-01-08T22:25:48.710Z,100.00
2023-01-08T22:28:50.264Z,100.00
2023-01-08T22:31:51.810Z,100.00
2023-01-08T22:34:53.341Z,100.00
2023-01-08T22:37:54.810Z,100.00
2023-01-08T22:40:56.311Z,100.00
2023-01-08T22:43:57.809Z,100.00
2023-01-08T22:47:02.125Z,100.00
2023-01-08T22:50:03.888Z,100.00
2023-01-08T22:53:05.505Z,100.00
2023-01-08T22:56:12.120Z,100.00
2023-01-08T22:59:13.669Z,100.00
2023-01-08T23:02:19.114Z,100.00
2023-01-08T23:05:20.556Z,100.00
2023-01-08T23:08:22.021Z,100.00
2023-01-08T23:11:24.925Z,100.00
2023-01-08T23:14:26.554Z,100.00
2023-01-08T23:17:28.094Z,100.00
2023-01-08T23:20:29.632Z,100.00
2023-01-08T23:23:31.231Z,100.00
2023-01-08T23:26:32.764Z,100.00
2023-01-08T23:29:34.313Z,100.00
2023-01-08T23:32:35.803Z,100.00
2023-01-08T23:35:37.579Z,100.00
2023-01-08T23:38:39.071Z,100.00
2023-01-08T23:41:40.544Z,100.00
2023-01-08T23:44:42.161Z,100.00
2023-01-08T23:47:43.689Z,100.00
2023-01-08T23:50:45.154Z,100.00
2023-01-08T23:53:46.675Z,100.00
2023-01-08T23:56:48.917Z,100.00
2023-01-08T23:59:50.446Z,100.00
